Time;durP1;ratioP1;P1;durP2;ratioP2;P2;SDS_P1;SDS_P2;PMS_P1;PMS_P2;Temp;Humidity;BMP_temperature;BMP_pressure;BME280_temperature;BME280_humidity;BME280_pressure;Samples;Min_cycle;Max_cycle;Signal;HPM_P1;HPM_P2
2021/11/14 00:01:23;;;;;;;41.17;22.58;;;;;;;7.76;100.00;97852.06;6199365;23;20013;-79
2021/11/14 00:03:51;;;;;;;44.50;24.35;;;;;;;7.82;100.00;97859.00;6199246;23;20025;-82
2021/11/14 00:06:20;;;;;;;41.78;23.05;;;;;;;7.72;100.00;97861.81;6177597;23;20317;-80
2021/11/14 00:08:48;;;;;;;44.67;22.42;;;;;;;7.78;100.00;97860.66;6202423;23;20025;-80
2021/11/14 00:11:19;;;;;;;41.47;22.27;;;;;;;7.75;100.00;97853.16;6202421;23;20043;-79
2021/11/14 00:13:48;;;;;;;40.50;22.33;;;;;;;7.93;100.00;97885.50;6202707;23;20025;-81
2021/11/14 00:16:19;;;;;;;41.20;22.33;;;;;;;7.70;100.00;97891.75;6204243;23;20031;-80
2021/11/14 00:18:46;;;;;;;50.47;23.13;;;;;;;7.62;100.00;97875.41;6205763;23;20021;-81
2021/11/14 00:21:24;;;;;;;45.67;23.10;;;;;;;7.65;100.00;97869.44;6181538;23;20015;-81
2021/11/14 00:23:52;;;;;;;41.65;22.75;;;;;;;7.75;100.00;97885.47;6205002;23;20025;-82
2021/11/14 00:26:19;;;;;;;48.30;26.35;;;;;;;7.58;100.00;97869.03;6178704;23;20277;-80
2021/11/14 00:28:46;;;;;;;49.45;26.67;;;;;;;7.74;100.00;97897.38;6201452;23;20052;-81
2021/11/14 00:31:17;;;;;;;49.30;27.15;;;;;;;7.61;100.00;97871.13;6202526;23;20035;-81
2021/11/14 00:33:46;;;;;;;49.53;25.83;;;;;;;7.90;100.00;97904.94;6178432;23;20052;-83
2021/11/14 00:36:16;;;;;;;52.70;26.85;;;;;;;7.90;100.00;97904.13;6206602;23;20009;-79
2021/11/14 00:38:46;;;;;;;50.35;25.58;;;;;;;7.82;100.00;97880.56;6180907;23;20336;-84
2021/11/14 00:41:15;;;;;;;44.92;24.73;;;;;;;7.87;100.00;97902.81;6176550;23;20021;-80
2021/11/14 00:43:42;;;;;;;52.03;26.58;;;;;;;7.92;100.00;97905.44;6202812;23;20025;-81
2021/11/14 00:46:10;;;;;;;53.90;26.58;;;;;;;7.86;100.00;97898.53;6203117;23;20608;-80
2021/11/14 00:48:42;;;;;;;52.40;26.33;;;;;;;7.91;100.00;97909.25;6180891;23;20044;-79
2021/11/14 00:51:15;;;;;;;52.75;26.10;;;;;;;7.74;100.00;97895.50;6210532;23;20005;-80
2021/11/14 00:53:42;;;;;;;52.10;26.45;;;;;;;7.72;100.00;97900.34;6209264;23;20065;-79
2021/11/14 00:56:09;;;;;;;50.38;24.75;;;;;;;7.78;100.00;97906.47;6205098;23;20025;-78
2021/11/14 00:58:35;;;;;;;46.90;23.45;;;;;;;7.63;100.00;97890.50;6203898;23;20051;-80
2021/11/14 01:01:03;;;;;;;53.90;24.45;;;;;;;7.64;100.00;97897.50;6203219;23;20025;-80
2021/11/14 01:03:30;;;;;;;45.22;22.77;;;;;;;7.76;100.00;97901.38;6202374;23;20040;-80
2021/11/14 01:05:56;;;;;;;52.55;25.90;;;;;;;7.70;100.00;97913.31;6201408;23;20032;-80
2021/11/14 01:08:24;;;;;;;46.63;23.95;;;;;;;7.70;100.00;97907.91;6174867;23;20025;-84
2021/11/14 01:10:52;;;;;;;46.13;23.90;;;;;;;7.66;100.00;97898.81;6173824;23;20021;-82
2021/11/14 01:13:19;;;;;;;45.80;23.58;;;;;;;7.75;100.00;97915.94;6199228;23;20033;-81
2021/11/14 01:15:48;;;;;;;49.35;24.60;;;;;;;7.67;100.00;97896.91;6195711;23;20028;-81
2021/11/14 01:18:17;;;;;;;45.15;23.17;;;;;;;7.66;100.00;97898.81;6194866;23;20023;-84
2021/11/14 01:20:46;;;;;;;47.80;22.60;;;;;;;7.60;100.00;97888.38;6197392;23;20025;-81
2021/11/14 01:23:16;;;;;;;45.78;23.02;;;;;;;7.74;100.00;97900.88;6198005;23;20032;-81
2021/11/14 01:25:46;;;;;;;42.47;22.27;;;;;;;7.90;100.00;97926.50;6196031;23;20025;-81
2021/11/14 01:28:12;;;;;;;46.15;21.90;;;;;;;7.92;100.00;97927.00;6202192;23;20016;-79
2021/11/14 01:30:42;;;;;;;37.80;21.38;;;;;;;7.75;100.00;97915.13;6208375;23;20520;-81
2021/11/14 01:33:10;;;;;;;42.88;22.55;;;;;;;7.75;100.00;97893.56;6174452;23;20025;-83
2021/11/14 01:35:37;;;;;;;49.40;23.42;;;;;;;7.83;100.00;97909.09;6167125;23;20029;-82
2021/11/14 01:38:05;;;;;;;49.55;23.27;;;;;;;7.87;100.00;97929.00;6198965;23;20020;-79
2021/11/14 01:40:36;;;;;;;46.40;23.20;;;;;;;7.86;100.00;97922.00;6208117;23;20039;-82
2021/11/14 01:43:04;;;;;;;42.72;21.65;;;;;;;7.79;100.00;97902.69;6204530;23;20025;-82
2021/11/14 01:45:31;;;;;;;42.05;22.77;;;;;;;7.87;100.00;97918.22;6201552;23;20025;-81
2021/11/14 01:47:58;;;;;;;48.30;23.77;;;;;;;7.73;100.00;97893.06;6202311;23;20055;-85
2021/11/14 01:50:25;;;;;;;44.47;22.80;;;;;;;7.84;100.00;97894.53;6174437;23;20039;-83
2021/11/14 01:52:53;;;;;;;46.85;22.98;;;;;;;7.67;100.00;97891.50;6181087;23;20005;-81
2021/11/14 01:55:24;;;;;;;41.55;21.67;;;;;;;7.86;100.00;97914.72;6206992;23;20040;-81
2021/11/14 01:57:51;;;;;;;42.10;21.65;;;;;;;7.79;100.00;97892.72;6205547;23;20050;-82
2021/11/14 02:00:27;;;;;;;41.35;22.20;;;;;;;7.93;100.00;97917.84;6205738;23;20025;-80
2021/11/14 02:02:54;;;;;;;41.25;21.83;;;;;;;7.81;100.00;97903.19;6205995;23;20008;-84
2021/11/14 02:05:23;;;;;;;45.10;22.13;;;;;;;7.74;100.00;97895.50;6189814;23;20021;-85
2021/11/14 02:07:54;;;;;;;41.00;22.23;;;;;;;7.55;100.00;97889.25;6191663;23;20402;-82
2021/11/14 02:10:24;;;;;;;41.00;21.42;;;;;;;7.80;100.00;97910.47;6201020;23;20024;-82
2021/11/14 02:12:51;;;;;;;47.60;22.48;;;;;;;7.80;100.00;97910.47;6201445;23;20025;-83
2021/11/14 02:15:19;;;;;;;44.78;21.80;;;;;;;7.87;100.00;97912.84;6193229;23;20029;-83
2021/11/14 02:17:45;;;;;;;41.00;22.15;;;;;;;7.97;100.00;97923.47;6197947;23;20025;-82
2021/11/14 02:20:14;;;;;;;43.65;21.95;;;;;;;7.48;100.00;97900.38;6196244;23;20051;-84
2021/11/14 02:22:41;;;;;;;39.10;21.52;;;;;;;7.77;100.00;97905.66;6196276;23;20025;-84
2021/11/14 02:25:10;;;;;;;43.35;22.48;;;;;;;7.89;100.00;97921.41;6196378;23;20555;-81
2021/11/14 02:27:39;;;;;;;44.97;22.02;;;;;;;7.91;100.00;97909.25;6178316;23;20064;-83
2021/11/14 02:30:08;;;;;;;44.13;22.40;;;;;;;8.06;100.00;97937.88;6196242;23;20060;-86
2021/11/14 02:32:35;;;;;;;45.08;22.65;;;;;;;8.08;100.00;97944.59;6188350;23;20396;-84
2021/11/14 02:35:16;;;;;;;43.85;22.60;;;;;;;7.86;100.00;97922.00;6190338;23;20428;-84
2021/11/14 02:37:44;;;;;;;40.83;21.95;;;;;;;7.95;100.00;97949.88;6190482;23;20041;-86
2021/11/14 02:40:13;;;;;;;41.85;21.42;;;;;;;7.77;100.00;97929.91;6191233;23;20242;-84
2021/11/14 02:42:41;;;;;;;42.50;20.70;;;;;;;7.86;100.00;97936.28;6191103;23;20483;-84
2021/11/14 02:45:09;;;;;;;40.33;21.08;;;;;;;7.82;100.00;97920.97;6165955;23;20083;-85
2021/11/14 02:47:37;;;;;;;39.65;20.73;;;;;;;7.91;100.00;97927.31;6192464;23;20032;-85
2021/11/14 02:50:06;;;;;;;46.60;22.60;;;;;;;8.03;100.00;97950.06;6192349;23;20053;-86
2021/11/14 02:52:33;;;;;;;49.97;24.38;;;;;;;7.70;100.00;97947.53;6192524;23;20029;-83
2021/11/14 02:54:59;;;;;;;45.92;23.58;;;;;;;7.61;100.00;97936.59;6193800;23;20051;-85
2021/11/14 02:57:26;;;;;;;47.20;24.55;;;;;;;7.63;100.00;97952.47;6194097;23;20025;-85
2021/11/14 02:59:52;;;;;;;47.03;23.05;;;;;;;7.61;100.00;97941.19;6194528;23;20025;-84
2021/11/14 03:02:19;;;;;;;41.08;23.48;;;;;;;7.55;100.00;97945.81;6194064;23;20115;-83
2021/11/14 03:04:46;;;;;;;47.03;24.52;;;;;;;7.63;100.00;97960.56;6194802;23;20084;-85
2021/11/14 03:07:13;;;;;;;46.88;23.17;;;;;;;7.51;100.00;97942.91;6194734;23;20032;-84
2021/11/14 03:09:40;;;;;;;48.25;24.65;;;;;;;7.41;100.00;97945.72;6194022;23;20111;-81
2021/11/14 03:12:07;;;;;;;50.88;24.40;;;;;;;7.31;100.00;97926.97;6194538;23;20052;-85
2021/11/14 03:14:35;;;;;;;48.53;23.92;;;;;;;7.64;100.00;97973.72;6192464;23;20025;-84
2021/11/14 03:17:02;;;;;;;49.40;24.25;;;;;;;7.64;100.00;97978.34;6193847;23;20029;-84
2021/11/14 03:19:28;;;;;;;56.72;26.75;;;;;;;7.44;100.00;97945.13;6191963;23;20025;-84
2021/11/14 03:21:55;;;;;;;48.40;24.67;;;;;;;7.33;100.00;97935.56;6197750;23;20056;-83
2021/11/14 03:24:21;;;;;;;41.72;22.42;;;;;;;7.66;100.00;97970.75;6191416;23;20025;-84
2021/11/14 03:26:48;;;;;;;43.55;21.95;;;;;;;7.67;100.00;97961.56;6190337;23;20029;-85
2021/11/14 03:29:14;;;;;;;40.10;21.67;;;;;;;7.71;100.00;97970.69;6189519;23;20471;-86
2021/11/14 03:31:41;;;;;;;41.72;21.77;;;;;;;7.67;100.00;97964.25;6190423;23;20025;-86
2021/11/14 03:34:08;;;;;;;44.88;23.75;;;;;;;7.35;100.00;97954.94;6190702;23;20035;-83
2021/11/14 03:36:35;;;;;;;43.15;23.75;;;;;;;7.23;100.00;97959.91;6190625;23;20024;-85
2021/11/14 03:39:05;;;;;;;46.80;24.42;;;;;;;7.12;100.00;97939.59;6171279;23;20048;-84
2021/11/14 03:41:38;;;;;;;50.05;25.00;;;;;;;7.16;100.00;97967.53;6203327;23;20013;-83
2021/11/14 03:44:06;;;;;;;46.65;23.42;;;;;;;7.16;100.00;97962.13;6202461;23;20021;-82
2021/11/14 03:46:34;;;;;;;53.97;23.98;;;;;;;7.22;100.00;97971.78;6204076;23;20068;-83
2021/11/14 03:49:02;;;;;;;46.42;22.85;;;;;;;7.19;100.00;97982.31;6203803;23;20052;-82
2021/11/14 03:51:28;;;;;;;49.35;25.58;;;;;;;6.92;100.00;97945.13;6202846;23;20021;-82
2021/11/14 03:53:57;;;;;;;56.25;26.63;;;;;;;6.97;100.00;97972.00;6202818;23;20090;-79
2021/11/14 03:56:25;;;;;;;56.00;25.38;;;;;;;7.02;100.00;97980.03;6203448;23;20045;-79
2021/11/14 03:58:52;;;;;;;49.40;26.17;;;;;;;7.10;100.00;97987.50;6203410;23;20045;-81
2021/11/14 04:01:21;;;;;;;57.03;25.80;;;;;;;7.05;100.00;98000.19;6202725;23;20028;-82
2021/11/14 04:03:50;;;;;;;54.40;26.80;;;;;;;6.81;100.00;97984.78;6203976;23;20021;-82
2021/11/14 04:06:18;;;;;;;53.35;26.65;;;;;;;7.10;100.00;98000.97;6204990;23;20069;-81
2021/11/14 04:08:44;;;;;;;54.08;26.35;;;;;;;7.18;100.00;97996.84;6204917;23;20103;-82
2021/11/14 04:11:11;;;;;;;58.88;27.77;;;;;;;6.97;100.00;98008.91;6205492;23;20099;-82
2021/11/14 04:13:37;;;;;;;55.17;26.38;;;;;;;6.89;100.00;97988.78;6204115;23;20469;-83
2021/11/14 04:16:07;;;;;;;54.42;26.27;;;;;;;6.94;100.00;97988.75;6204459;23;20025;-83
2021/11/14 04:18:35;;;;;;;59.70;27.52;;;;;;;6.79;100.00;97972.69;6204821;23;20009;-81
2021/11/14 04:21:02;;;;;;;59.78;27.92;;;;;;;6.79;100.00;97999.59;6200269;23;20101;-80
2021/11/14 04:23:28;;;;;;;65.57;29.65;;;;;;;6.82;100.00;98001.75;6190261;23;20088;-86
2021/11/14 04:25:55;;;;;;;58.95;28.73;;;;;;;6.94;100.00;98009.47;6189032;23;20028;-82
2021/11/14 04:28:22;;;;;;;63.97;30.05;;;;;;;6.95;100.00;97998.41;6190802;23;20358;-85
2021/11/14 04:30:50;;;;;;;68.53;30.35;;;;;;;7.05;100.00;98003.69;6191005;23;20075;-85
2021/11/14 04:33:18;;;;;;;57.40;27.45;;;;;;;7.02;100.00;98022.31;6189843;23;20020;-87
2021/11/14 04:35:56;;;;;;;60.17;28.48;;;;;;;6.98;100.00;98007.81;6186002;23;20472;-80
2021/11/14 04:38:50;;;;;;;64.75;28.95;;;;;;;6.90;100.00;98001.94;6165144;23;20021;-80
2021/11/14 04:41:21;;;;;;;54.30;26.40;;;;;;;7.21;100.00;98007.88;6162777;23;20031;-81
2021/11/14 04:43:48;;;;;;;62.58;27.58;;;;;;;7.12;100.00;98031.09;6161183;23;20025;-82
2021/11/14 04:46:20;;;;;;;62.60;27.90;;;;;;;7.01;100.00;98020.69;6154538;23;20032;-84
2021/11/14 04:48:50;;;;;;;56.17;26.10;;;;;;;7.16;100.00;98026.75;6132200;23;20032;-86
2021/11/14 04:51:17;;;;;;;53.63;26.08;;;;;;;7.17;100.00;98036.44;6157526;23;20029;-85
2021/11/14 04:53:44;;;;;;;50.92;26.35;;;;;;;6.90;100.00;98028.06;6135028;23;20021;-87
2021/11/14 04:56:11;;;;;;;59.80;28.10;;;;;;;7.10;100.00;98035.19;6130415;23;20061;-87
2021/11/14 04:58:38;;;;;;;74.43;32.13;;;;;;;6.90;100.00;98017.28;6107181;23;20030;-85
2021/11/14 05:01:08;;;;;;;53.58;27.20;;;;;;;7.06;100.00;98024.16;6115618;23;20026;-84
2021/11/14 05:03:36;;;;;;;51.72;24.25;;;;;;;7.10;100.00;98027.88;6102752;23;20085;-84
2021/11/14 05:06:08;;;;;;;52.33;25.52;;;;;;;7.10;100.00;98022.50;6103019;23;20109;-84
2021/11/14 05:08:41;;;;;;;50.65;25.10;;;;;;;7.20;100.00;98027.00;6102950;23;20507;-84
2021/11/14 05:11:08;;;;;;;51.65;25.65;;;;;;;7.16;100.00;98042.09;6103129;23;20104;-84
2021/11/14 05:13:35;;;;;;;52.55;25.35;;;;;;;7.10;100.00;98027.09;6103363;23;20022;-85
2021/11/14 05:16:02;;;;;;;55.67;25.10;;;;;;;7.30;100.00;98040.38;6127080;23;20021;-85
2021/11/14 05:18:35;;;;;;;49.13;24.35;;;;;;;7.35;100.00;98049.22;6102471;23;20113;-85
2021/11/14 05:21:03;;;;;;;45.58;22.98;;;;;;;7.39;100.00;98030.56;6101996;23;20025;-85
2021/11/14 05:23:30;;;;;;;49.60;23.50;;;;;;;7.27;100.00;98032.84;6103189;23;20282;-85
2021/11/14 05:25:56;;;;;;;47.42;23.67;;;;;;;7.27;100.00;98049.81;6126944;23;20588;-86
2021/11/14 05:28:27;;;;;;;48.45;23.50;;;;;;;7.29;100.00;98050.34;6103262;23;20070;-85
2021/11/14 05:30:53;;;;;;;47.30;24.17;;;;;;;7.28;100.00;98062.19;6104557;23;20029;-85
2021/11/14 05:33:20;;;;;;;47.35;24.48;;;;;;;7.27;100.00;98065.16;6105538;23;20034;-85
2021/11/14 05:35:50;;;;;;;50.22;24.08;;;;;;;7.30;100.00;98065.38;6130637;23;20060;-85
2021/11/14 05:38:23;;;;;;;50.03;24.38;;;;;;;7.10;100.00;98064.78;6133753;23;20569;-86
2021/11/14 05:40:55;;;;;;;44.10;22.83;;;;;;;7.26;100.00;98077.81;6130849;23;20690;-86
2021/11/14 05:43:22;;;;;;;46.60;23.63;;;;;;;7.31;100.00;98058.13;6106347;23;20030;-84
2021/11/14 05:45:51;;;;;;;45.85;23.08;;;;;;;7.34;100.00;98077.22;6114524;23;20033;-86
2021/11/14 05:48:18;;;;;;;46.72;23.15;;;;;;;7.33;100.00;98080.97;6131144;23;20026;-85
2021/11/14 05:50:48;;;;;;;44.67;24.10;;;;;;;7.39;100.00;98076.34;6130181;23;20026;-85
2021/11/14 05:53:23;;;;;;;48.58;23.52;;;;;;;7.22;100.00;98062.53;6157022;23;20036;-85
2021/11/14 05:55:57;;;;;;;46.95;23.60;;;;;;;7.17;100.00;98084.91;6167386;23;20010;-84
2021/11/14 05:58:43;;;;;;;47.72;23.35;;;;;;;7.00;100.00;98080.97;6129221;23;20029;-85
2021/11/14 06:01:18;;;;;;;44.53;23.13;;;;;;;7.13;100.00;98093.81;6126999;23;20626;-85
2021/11/14 06:06:33;;;;;;;46.03;24.50;;;;;;;7.19;100.00;98088.13;6130453;23;20026;-85
2021/11/14 06:09:03;;;;;;;45.28;23.92;;;;;;;7.32;100.00;98117.09;6131055;23;20073;-86
2021/11/14 06:11:46;;;;;;;44.75;22.52;;;;;;;7.35;100.00;98102.25;6130237;23;20029;-86
2021/11/14 06:14:33;;;;;;;46.17;23.85;;;;;;;7.13;100.00;98091.94;6128133;23;20097;-84
2021/11/14 06:20:45;;;;;;;;;;;;;;;;;;;;;
2021/11/14 06:24:40;;;;;;;43.58;22.00;;;;;;;7.25;100.00;98105.81;6130376;23;20021;-86
2021/11/14 06:28:05;;;;;;;46.33;22.40;;;;;;;7.37;100.00;98122.44;6149020;23;20037;-86
2021/11/14 06:31:30;;;;;;;41.55;21.08;;;;;;;7.25;100.00;98123.91;6130555;23;20026;-86
2021/11/14 06:34:01;;;;;;;40.22;21.20;;;;;;;7.52;100.00;98156.53;6131290;23;20109;-87
2021/11/14 06:41:32;;;;;;;;;;;;;;;;;;;;;
2021/11/14 06:49:10;;;;;;;38.45;19.85;;;;;;;7.17;100.00;98173.75;6130088;23;20049;-86
2021/11/14 06:59:25;;;;;;;42.88;22.05;;;;;;;7.25;100.00;98191.22;6090014;23;20081;-85
2021/11/14 07:02:16;;;;;;;40.50;20.73;;;;;;;7.21;100.00;98188.25;6143168;23;20021;-85
2021/11/14 07:04:53;;;;;;;42.13;21.17;;;;;;;7.25;100.00;98192.00;6141630;23;20030;-86
2021/11/14 07:07:23;;;;;;;38.33;20.45;;;;;;;7.27;100.00;98202.50;6145736;23;20267;-87
2021/11/14 07:10:31;;;;;;;38.05;20.48;;;;;;;7.35;100.00;98207.31;6031709;23;20265;-87
2021/11/14 07:13:31;;;;;;;37.88;19.48;;;;;;;7.25;100.00;98191.22;5969386;24;20016;-87
2021/11/14 07:16:56;;;;;;;;;;;;;;;;;;;;;
2021/11/14 07:20:44;;;;;;;35.05;18.25;;;;;;;7.66;100.00;98224.84;5947553;24;20015;-84
2021/11/14 07:24:01;;;;;;;35.60;18.55;;;;;;;7.87;100.00;98222.81;5943706;24;20119;-84
2021/11/14 07:31:12;;;;;;;32.13;17.70;;;;;;;7.93;100.00;98208.97;5829826;24;20061;-87
2021/11/14 07:33:42;;;;;;;32.10;16.95;;;;;;;7.90;100.00;98212.25;5860349;24;20537;-87
2021/11/14 07:39:35;;;;;;;30.80;16.38;;;;;;;8.08;100.00;98216.13;6149988;23;20026;-81
2021/11/14 07:42:05;;;;;;;31.60;16.20;;;;;;;8.26;100.00;98238.88;6125228;23;20091;-81
2021/11/14 07:53:37;;;;;;;28.30;15.40;;;;;;;8.44;100.00;98247.06;6063764;23;20027;-80
2021/11/14 07:56:04;;;;;;;27.63;15.32;;;;;;;8.58;100.00;98247.19;6062998;23;20274;-81
2021/11/14 07:58:31;;;;;;;25.00;14.98;;;;;;;8.41;100.00;98209.91;6065598;23;20042;-80
2021/11/14 08:00:58;;;;;;;26.55;14.90;;;;;;;8.74;100.00;98249.47;6063615;23;20035;-78
2021/11/14 08:03:25;;;;;;;29.58;14.63;;;;;;;8.64;100.00;98254.97;6065126;23;20090;-80
2021/11/14 08:05:51;;;;;;;29.30;15.30;;;;;;;8.76;100.00;98244.56;6070887;23;20108;-79
2021/11/14 08:08:27;;;;;;;26.45;14.85;;;;;;;8.90;100.00;98247.38;6197795;23;20025;-86
2021/11/14 08:10:56;;;;;;;26.50;15.05;;;;;;;9.05;100.00;98243.69;6200206;23;20072;-85
2021/11/14 08:13:23;;;;;;;29.90;15.55;;;;;;;9.10;100.00;98254.41;6175979;23;20045;-84
2021/11/14 08:15:50;;;;;;;25.73;14.88;;;;;;;9.15;100.00;98252.44;6167928;23;20025;-82
2021/11/14 08:18:19;;;;;;;29.55;16.35;;;;;;;9.23;100.00;98248.28;6158491;23;20112;-84
2021/11/14 08:21:05;;;;;;;31.17;16.30;;;;;;;9.53;100.00;98264.06;6156839;23;20029;-81
2021/11/14 08:23:56;;;;;;;29.95;16.25;;;;;;;8.87;100.00;98269.56;6162078;23;20016;-82
2021/11/14 08:26:23;;;;;;;32.25;15.93;;;;;;;9.19;100.00;98263.47;6157254;23;20025;-82
2021/11/14 08:28:49;;;;;;;29.25;15.93;;;;;;;9.14;100.00;98274.34;6158045;23;20112;-83
2021/11/14 08:31:22;;;;;;;33.67;17.65;;;;;;;8.88;100.00;98270.38;6159071;23;20076;-84
2021/11/14 08:33:49;;;;;;;34.83;17.20;;;;;;;9.23;100.00;98275.31;6158470;23;20375;-85
2021/11/14 08:36:16;;;;;;;29.42;16.52;;;;;;;9.31;100.00;98280.88;6158400;23;20029;-83
2021/11/14 08:38:44;;;;;;;30.30;16.65;;;;;;;9.66;100.00;98284.97;6158089;23;20024;-83
2021/11/14 08:41:15;;;;;;;28.33;15.93;;;;;;;10.30;100.00;98272.63;6184443;23;20033;-82
2021/11/14 08:43:42;;;;;;;26.25;15.57;;;;;;;11.02;100.00;98260.16;6181541;23;20032;-81
2021/11/14 08:46:09;;;;;;;27.10;15.65;;;;;;;11.15;100.00;98273.69;6155502;23;20068;-80
2021/11/14 08:48:38;;;;;;;26.95;14.82;;;;;;;9.71;100.00;98284.09;6182114;23;20039;-80
2021/11/14 08:51:08;;;;;;;27.45;15.50;;;;;;;9.49;100.00;98295.50;6182597;23;20025;-79
2021/11/14 08:53:36;;;;;;;28.70;15.23;;;;;;;10.03;100.00;98284.94;6197097;23;20060;-78
2021/11/14 08:56:04;;;;;;;26.05;14.65;;;;;;;10.58;100.00;98290.53;6191801;23;20025;-81
2021/11/14 08:58:35;;;;;;;23.67;13.85;;;;;;;9.69;100.00;98289.81;6159535;23;20363;-80
2021/11/14 09:01:05;;;;;;;24.58;14.30;;;;;;;10.53;100.00;98293.31;6170548;23;20027;-80
2021/11/14 09:03:33;;;;;;;22.42;13.63;;;;;;;10.62;100.00;98291.53;6162176;23;20675;-80
2021/11/14 09:06:38;;;;;;;23.63;13.65;;;;;;;10.91;100.00;98285.84;6163720;23;20032;-80
2021/11/14 09:09:51;;;;;;;104.55;16.92;;;;;;;11.09;100.00;98288.47;6166297;23;20028;-79
2021/11/14 09:12:25;;;;;;;31.63;13.07;;;;;;;11.02;100.00;98289.97;6161364;23;20093;-79
2021/11/14 09:15:17;;;;;;;62.53;13.82;;;;;;;10.90;100.00;98297.78;6185714;23;20021;-84
2021/11/14 09:18:08;;;;;;;23.10;11.25;;;;;;;10.85;100.00;98312.22;6162710;23;20025;-84
2021/11/14 09:20:47;;;;;;;17.92;10.95;;;;;;;10.46;100.00;98309.16;6159857;23;20029;-81
2021/11/14 09:23:36;;;;;;;18.15;10.77;;;;;;;10.69;100.00;98301.97;6185992;23;20120;-82
2021/11/14 09:26:18;;;;;;;22.67;11.32;;;;;;;11.87;100.00;98311.75;6189590;23;20029;-81
2021/11/14 09:28:48;;;;;;;19.70;10.13;;;;;;;11.76;100.00;98307.66;6161138;23;20335;-81
2021/11/14 09:31:26;;;;;;;15.52;9.88;;;;;;;11.91;100.00;98304.59;6188663;23;20036;-81
2021/11/14 09:34:20;;;;;;;18.88;10.57;;;;;;;12.58;100.00;98318.16;6188481;23;20099;-84
2021/11/14 09:37:18;;;;;;;13.93;9.00;;;;;;;11.66;100.00;98314.09;6166458;23;20151;-83
2021/11/14 09:39:46;;;;;;;33.03;10.05;;;;;;;11.53;100.00;98300.56;6162996;23;20025;-84
2021/11/14 09:42:15;;;;;;;22.48;10.05;;;;;;;11.45;100.00;98307.50;6162031;23;20087;-86
2021/11/14 09:44:42;;;;;;;16.13;8.90;;;;;;;11.43;100.00;98306.19;6157810;23;20686;-82
2021/11/14 09:47:16;;;;;;;12.55;7.82;;;;;;;11.23;100.00;98319.06;6185575;23;20029;-87
2021/11/14 09:49:59;;;;;;;9.27;5.32;;;;;;;10.53;100.00;98310.38;6159574;23;20018;-84
2021/11/14 09:53:01;;;;;;;5.63;2.90;;;;;;;10.45;100.00;98312.97;6181488;23;20135;-84
2021/11/14 09:55:36;;;;;;;4.95;3.35;;;;;;;10.73;100.00;98336.28;6157255;23;20034;-86
2021/11/14 09:58:09;;;;;;;5.63;3.40;;;;;;;10.26;100.00;98326.53;6157143;23;20479;-87
2021/11/14 10:00:39;;;;;;;5.50;3.85;;;;;;;9.74;100.00;98334.88;6157562;23;20099;-85
2021/11/14 10:03:09;;;;;;;6.45;4.40;;;;;;;9.70;100.00;98325.75;6182314;23;20112;-83
2021/11/14 10:05:40;;;;;;;7.57;4.85;;;;;;;10.19;100.00;98334.25;6181699;23;20056;-86
2021/11/14 10:08:12;;;;;;;6.95;4.72;;;;;;;10.56;100.00;98342.25;6158788;23;20055;-82
2021/11/14 10:11:03;;;;;;;8.05;5.22;;;;;;;10.18;100.00;98334.53;6162108;23;20201;-85
2021/11/14 10:13:36;;;;;;;8.98;5.75;;;;;;;10.58;100.00;98334.63;6159521;23;20345;-84
2021/11/14 10:16:10;;;;;;;8.40;6.00;;;;;;;10.49;100.00;98344.56;6159327;23;20033;-84
2021/11/14 10:18:45;;;;;;;11.32;6.78;;;;;;;10.57;100.00;98340.38;6158857;23;20654;-84
2021/11/14 10:21:13;;;;;;;11.98;7.47;;;;;;;10.76;100.00;98316.75;6159931;23;20035;-85
2021/11/14 10:23:54;;;;;;;8.85;5.70;;;;;;;11.14;100.00;98329.00;6161235;23;20033;-83
2021/11/14 10:26:51;;;;;;;7.10;4.68;;;;;;;10.86;100.00;98329.28;6162342;23;20033;-86
2021/11/14 10:29:37;;;;;;;7.05;4.95;;;;;;;10.92;100.00;98339.72;6130269;23;20035;-82
2021/11/14 10:32:15;;;;;;;8.45;5.25;;;;;;;10.87;100.00;98337.09;6158095;23;20028;-86
2021/11/14 10:34:51;;;;;;;7.53;5.38;;;;;;;9.91;100.00;98340.59;6157305;23;20410;-83
2021/11/14 10:37:19;;;;;;;9.00;5.85;;;;;;;10.20;100.00;98327.72;6159878;23;20029;-79
2021/11/14 10:39:51;;;;;;;7.43;5.25;;;;;;;10.49;100.00;98332.91;6158120;23;20037;-81
2021/11/14 10:42:19;;;;;;;7.13;5.18;;;;;;;10.69;100.00;98351.50;6158455;23;20033;-81
2021/11/14 10:44:52;;;;;;;10.43;5.80;;;;;;;10.77;100.00;98358.97;6159431;23;20431;-81
2021/11/14 10:47:22;;;;;;;8.90;5.93;;;;;;;10.73;100.00;98362.56;6157463;23;20123;-78
2021/11/14 10:49:54;;;;;;;9.45;6.43;;;;;;;10.63;100.00;98364.34;6164646;23;20029;-82
2021/11/14 10:52:24;;;;;;;10.25;7.40;;;;;;;10.54;100.00;98351.78;6168028;23;20036;-84
2021/11/14 10:54:56;;;;;;;10.43;7.00;;;;;;;10.13;100.00;98356.25;6166888;23;20028;-84
2021/11/14 10:57:29;;;;;;;10.95;7.10;;;;;;;10.45;100.00;98348.94;6160234;23;20039;-82
2021/11/14 10:59:59;;;;;;;11.20;7.07;;;;;;;10.53;100.00;98345.56;6162306;23;20051;-83
2021/11/14 11:02:28;;;;;;;11.23;7.55;;;;;;;10.54;100.00;98357.19;6196613;23;20025;-82
2021/11/14 11:04:56;;;;;;;10.02;7.22;;;;;;;10.45;100.00;98346.22;6199504;23;20376;-83
2021/11/14 11:07:23;;;;;;;12.00;7.65;;;;;;;10.47;100.00;98364.91;6200525;23;20013;-85
2021/11/14 11:09:55;;;;;;;10.48;7.05;;;;;;;10.28;100.00;98356.00;6178003;23;20024;-88
2021/11/14 11:12:27;;;;;;;9.90;6.95;;;;;;;10.09;100.00;98355.22;6177691;23;20016;-83
2021/11/14 11:14:58;;;;;;;10.02;7.05;;;;;;;10.33;100.00;98362.13;6203728;23;20103;-83
2021/11/14 11:17:26;;;;;;;10.38;6.95;;;;;;;9.86;100.00;98325.22;6205102;23;20085;-86
2021/11/14 11:20:08;;;;;;;10.07;6.95;;;;;;;9.81;100.00;98357.75;6200723;23;20097;-85
2021/11/14 11:22:56;;;;;;;9.38;6.43;;;;;;;9.89;100.00;98348.19;6203266;23;20298;-84
2021/11/14 11:25:37;;;;;;;9.30;6.63;;;;;;;10.14;100.00;98337.03;6179597;23;20009;-84
2021/11/14 11:28:06;;;;;;;9.60;6.75;;;;;;;10.39;100.00;98347.44;6206415;23;20048;-87
2021/11/14 11:30:38;;;;;;;11.05;7.38;;;;;;;10.40;100.00;98354.44;6175272;23;20035;-85
2021/11/14 11:33:05;;;;;;;10.05;6.82;;;;;;;10.16;100.00;98337.53;6157972;23;20374;-87
2021/11/14 11:35:33;;;;;;;8.43;6.65;;;;;;;10.22;100.00;98355.28;6185200;23;20052;-88
2021/11/14 11:38:02;;;;;;;11.55;7.20;;;;;;;10.20;100.00;98338.53;6187529;23;20060;-87
2021/11/14 11:40:29;;;;;;;15.25;8.95;;;;;;;9.46;100.00;98350.13;6160403;23;20092;-85
2021/11/14 11:42:56;;;;;;;11.98;8.65;;;;;;;9.50;100.00;98342.25;6161845;23;20037;-87
2021/11/14 11:45:37;;;;;;;12.05;8.55;;;;;;;9.64;100.00;98368.28;6184995;23;20032;-86
2021/11/14 11:48:11;;;;;;;12.27;8.10;;;;;;;10.06;100.00;98356.59;6161958;23;20044;-87
2021/11/14 11:50:38;;;;;;;12.68;8.52;;;;;;;10.21;100.00;98352.88;6159087;23;20025;-86
2021/11/14 11:53:05;;;;;;;15.05;9.10;;;;;;;10.29;100.00;98369.25;6187936;23;20040;-88
2021/11/14 11:55:39;;;;;;;11.80;8.50;;;;;;;10.30;100.00;98359.22;6162209;23;20112;-86
2021/11/14 11:58:15;;;;;;;13.50;8.75;;;;;;;10.25;100.00;98351.16;6193661;23;20056;-88
2021/11/14 12:00:55;;;;;;;14.15;8.75;;;;;;;10.34;100.00;98344.00;6202883;23;20024;-86
2021/11/14 12:03:27;;;;;;;14.15;9.70;;;;;;;10.18;100.00;98373.22;6199344;23;20029;-86
2021/11/14 12:05:54;;;;;;;15.07;9.63;;;;;;;10.08;100.00;98351.69;6198251;23;20380;-85
2021/11/14 12:08:20;;;;;;;14.80;9.73;;;;;;;9.99;100.00;98372.38;6193825;23;20029;-86
2021/11/14 12:10:57;;;;;;;16.13;10.00;;;;;;;10.14;100.00;98360.56;6166721;23;20064;-85
2021/11/14 12:13:29;;;;;;;13.82;9.60;;;;;;;10.08;100.00;98351.69;6162452;23;20033;-85
2021/11/14 12:16:00;;;;;;;18.10;10.35;;;;;;;10.29;100.00;98368.44;6189851;23;20123;-86
2021/11/14 12:18:40;;;;;;;17.25;10.75;;;;;;;10.31;100.00;98358.13;6170576;23;20097;-84
2021/11/14 12:21:20;;;;;;;16.58;10.75;;;;;;;10.50;100.00;98378.63;6199272;23;20021;-87
2021/11/14 12:24:04;;;;;;;17.30;10.98;;;;;;;10.53;100.00;98379.94;6163847;23;20411;-87
2021/11/14 12:26:33;;;;;;;16.52;11.48;;;;;;;10.36;100.00;98372.38;6183692;23;20025;-87
2021/11/14 12:29:06;;;;;;;17.00;11.77;;;;;;;10.13;100.00;98348.13;6160922;23;20079;-85